Главная страница
METAR-TAF:

METAR-TAF

Аэропорты :

Каструп

Копенгаген, Дания

широта: 55-37N, долгота: 012-39E, высота над уровнем моря: 5 м

Текущие метеонаблюдения

Эта сводка был подготовлена 21 минут назад, в 19:20 UTC
Ветер 6 Узел от южный
Температура 2°C
Влажность 93%
Давление 995 hPa
Видимость: 9000 м

METAR: EKCH 231920Z AUTO 18006KT 9000 FEW008/// 02/01 Q0995 NOSIG

Время: 20:41 (19:41 UTC)

Прогноз

Эта сводка был подготовлена 2 часа и 38 минут назад, в 17:03 UTC
Прогноз действительный с 23-го 18 UTC до 24-го 18 UTC
Ветер 6 Узел от южный
Видимость: 7000 м
Отдельные облака на высоте 600 фута
временами
С 23-го 18 UTC до 23-го 21 UTC
Рассеянная облачность на высоте 600 фута
временами
С 23-го 21 UTC до 24-го 09 UTC
Видимость: 3000 м
Рассеянная облачность на высоте 600 фута
дымка
временами
С 24-го 09 UTC до 24-го 18 UTC
Рассеянная облачность на высоте 600 фута

TAF: EKCH 231703Z 2318/2418 18006KT 7000 SCT006 TEMPO 2318/2321 BKN006 TEMPO 2321/2409 3000 BR BKN006 TEMPO 2409/2418 BKN006

Метеонаблюдения и прогнозы для более 4000 аэропортов (сводки METAR и TAF).

Имеющиеся станции представлены на карте желтыми и красными точками.

Чтобы увидеть название станции, наведите на нее мышь.

Затем щелкните, чтобы увидеть метеонаблюдения и метеопрогнозы.

Управление картой: чтобы увеличить масштаб, щелкните зеленые кнопки с черным крестиком; чтобы уменьшить масштаб, щелкните зеленую кнопку с тире; для просмотра соседних карт щелкайте зеленые стрелки.


METAR-TAF: